Time;durP1;ratioP1;P1;durP2;ratioP2;P2;SDS_P1;SDS_P2;PMS_P1;PMS_P2;Temp;Humidity;BMP_temperature;BMP_pressure;BME280_temperature;BME280_humidity;BME280_pressure;Samples;Min_cycle;Max_cycle;Signal;HPM_P1;HPM_P2
2023/04/26 00:02:35;;;;;;;14.02;8.38;;;;;;;8.37;75.09;98351.78;7358981;19;19933;-75
2023/04/26 00:09:08;;;;;;;12.90;7.95;;;;;;;8.43;76.26;98353.91;7373618;19;19959;-75
2023/04/26 00:11:36;;;;;;;10.77;8.68;;;;;;;8.46;76.41;98348.34;7366728;19;20277;-75
2023/04/26 00:14:02;;;;;;;11.40;7.32;;;;;;;8.46;76.41;98353.63;7381155;19;19939;-75
2023/04/26 00:16:29;;;;;;;11.38;6.53;;;;;;;8.45;76.41;98351.97;7386203;19;19919;-75
2023/04/26 00:18:56;;;;;;;11.93;6.95;;;;;;;8.48;76.35;98342.94;7387349;19;19918;-74
2023/04/26 00:21:23;;;;;;;10.98;7.10;;;;;;;8.47;76.42;98350.00;7375547;19;20009;-75
2023/04/26 00:23:51;;;;;;;14.25;7.45;;;;;;;8.46;76.21;98343.09;7386827;19;19926;-75
2023/04/26 00:26:17;;;;;;;14.48;7.10;;;;;;;8.45;76.31;98343.22;7376584;19;19922;-75
2023/04/26 00:28:45;;;;;;;11.23;8.52;;;;;;;8.48;76.41;98351.69;7388953;19;20316;-75
2023/04/26 00:31:15;;;;;;;17.67;8.52;;;;;;;8.46;76.58;98358.91;7380318;19;19950;-75
2023/04/26 00:33:42;;;;;;;14.55;7.88;;;;;;;8.43;76.19;98345.19;7385235;19;19997;-75
2023/04/26 00:36:09;;;;;;;11.38;7.03;;;;;;;8.32;75.63;98346.97;7386549;19;21290;-75
2023/04/26 00:38:36;;;;;;;12.52;8.40;;;;;;;8.28;75.85;98353.50;7381829;19;19922;-75
2023/04/26 00:41:03;;;;;;;9.20;6.55;;;;;;;8.21;75.48;98355.03;7378079;19;19935;-74
2023/04/26 00:43:29;;;;;;;11.93;7.28;;;;;;;8.16;75.91;98351.97;7382388;19;19919;-74
2023/04/26 00:45:56;;;;;;;11.10;6.93;;;;;;;8.13;75.91;98363.63;7388113;19;19911;-75
2023/04/26 00:48:24;;;;;;;8.75;6.57;;;;;;;8.09;76.07;98362.25;7381178;19;19918;-75
2023/04/26 00:50:51;;;;;;;11.20;6.97;;;;;;;8.07;76.55;98364.19;7380802;19;19939;-75
2023/04/26 00:53:18;;;;;;;12.55;7.78;;;;;;;7.96;76.07;98366.16;7384817;19;19958;-74
2023/04/26 00:55:45;;;;;;;11.82;7.97;;;;;;;7.97;76.40;98375.72;7386917;19;20660;-74
2023/04/26 00:58:11;;;;;;;10.82;7.10;;;;;;;7.96;76.77;98374.06;7386648;19;19922;-74
2023/04/26 01:00:39;;;;;;;14.23;8.13;;;;;;;7.96;76.69;98372.25;7379308;19;20251;-74
2023/04/26 01:03:05;;;;;;;11.07;6.88;;;;;;;7.95;76.75;98375.00;7386639;19;19922;-74
2023/04/26 01:05:35;;;;;;;13.00;7.60;;;;;;;7.94;76.68;98368.09;7383985;19;19926;-75
2023/04/26 01:08:03;;;;;;;12.55;8.05;;;;;;;7.94;76.85;98376.81;7388324;19;19994;-74
2023/04/26 01:10:33;;;;;;;11.75;8.45;;;;;;;7.91;76.65;98375.28;7382984;19;22430;-75
2023/04/26 01:13:02;;;;;;;11.98;6.97;;;;;;;7.90;76.98;98378.91;7395414;19;20352;-75
2023/04/26 01:15:29;;;;;;;10.65;7.82;;;;;;;7.94;77.03;98373.38;7393792;19;19919;-75
2023/04/26 01:17:56;;;;;;;9.57;6.43;;;;;;;7.95;76.93;98375.00;7398818;19;19918;-75
2023/04/26 01:20:24;;;;;;;14.10;6.88;;;;;;;7.93;76.88;98371.72;7378770;19;19925;-75
2023/04/26 01:22:51;;;;;;;11.60;7.55;;;;;;;7.87;76.22;98367.81;7391149;19;19915;-74
2023/04/26 01:25:19;;;;;;;12.95;9.57;;;;;;;7.77;76.05;98373.09;7387734;19;20256;-74
2023/04/26 01:27:48;;;;;;;10.57;6.50;;;;;;;7.77;76.30;98370.47;7390826;19;19915;-74
2023/04/26 01:30:15;;;;;;;15.68;7.32;;;;;;;7.75;76.25;98375.03;7387609;19;19947;-74
2023/04/26 01:32:42;;;;;;;14.32;6.82;;;;;;;7.73;76.26;98371.69;7395183;19;19937;-74
2023/04/26 01:35:09;;;;;;;10.00;6.75;;;;;;;7.69;76.26;98371.13;7394141;19;19926;-74
2023/04/26 01:37:36;;;;;;;9.90;7.07;;;;;;;7.70;76.51;98361.44;7389884;19;19931;-75
2023/04/26 01:40:05;;;;;;;10.95;7.50;;;;;;;7.64;76.03;98362.00;7378608;19;19914;-75
2023/04/26 01:42:32;;;;;;;13.25;8.23;;;;;;;7.53;75.71;98364.72;7393475;19;20595;-74
2023/04/26 01:44:59;;;;;;;12.05;7.60;;;;;;;7.47;75.87;98366.94;7391371;19;19918;-75
2023/04/26 01:47:45;;;;;;;12.57;6.22;;;;;;;7.46;75.82;98364.47;7394136;19;20447;-75
2023/04/26 01:50:12;;;;;;;8.98;6.75;;;;;;;7.42;75.81;98361.25;7390758;19;19911;-75
2023/04/26 01:52:39;;;;;;;11.50;7.28;;;;;;;7.38;76.06;98359.88;7391897;19;19911;-74
2023/04/26 01:55:06;;;;;;;10.55;6.68;;;;;;;7.40;76.16;98368.47;7375930;19;19915;-75
2023/04/26 01:57:33;;;;;;;12.40;7.40;;;;;;;7.45;76.61;98362.78;7384079;19;19922;-75
2023/04/26 02:00:01;;;;;;;13.38;7.63;;;;;;;7.50;76.83;98365.00;7382035;19;19922;-74
2023/04/26 02:02:39;;;;;;;12.48;6.80;;;;;;;7.55;76.72;98366.25;7384464;19;20350;-75
2023/04/26 02:05:09;;;;;;;12.60;7.93;;;;;;;7.57;76.88;98366.13;7385233;19;19918;-74
2023/04/26 02:07:36;;;;;;;13.48;7.15;;;;;;;7.59;76.79;98367.66;7385164;19;19926;-74
2023/04/26 02:10:03;;;;;;;12.40;7.07;;;;;;;7.58;76.66;98363.38;7374882;19;19922;-74
2023/04/26 02:12:30;;;;;;;12.88;7.80;;;;;;;7.59;76.52;98361.56;7382463;19;19918;-75
2023/04/26 02:14:57;;;;;;;13.45;7.78;;;;;;;7.62;76.67;98369.19;7388835;19;19922;-75
2023/04/26 02:17:25;;;;;;;12.60;7.15;;;;;;;7.59;76.79;98362.41;7382234;19;19922;-75
2023/04/26 02:19:52;;;;;;;14.40;8.70;;;;;;;7.63;77.03;98363.78;7384227;19;20376;-75
2023/04/26 02:22:20;;;;;;;13.23;7.32;;;;;;;7.62;76.77;98359.47;7385517;19;19931;-75
2023/04/26 02:24:48;;;;;;;14.45;7.55;;;;;;;7.55;76.46;98357.53;7383581;19;19918;-75
2023/04/26 02:27:15;;;;;;;11.05;7.72;;;;;;;7.48;76.47;98366.00;7383399;19;19951;-74
2023/04/26 02:29:42;;;;;;;10.82;6.50;;;;;;;7.46;76.49;98357.38;7382337;19;19951;-75
2023/04/26 02:32:11;;;;;;;9.93;7.00;;;;;;;7.47;76.52;98364.31;7384220;19;19927;-75
2023/04/26 02:34:38;;;;;;;12.00;7.85;;;;;;;7.45;76.39;98358.38;7386671;19;19922;-75
2023/04/26 02:37:06;;;;;;;12.30;8.18;;;;;;;7.46;76.84;98360.03;7384354;19;20601;-74
2023/04/26 02:39:33;;;;;;;13.82;8.25;;;;;;;7.52;76.98;98363.91;7381920;19;19947;-75
2023/04/26 02:41:59;;;;;;;10.65;7.38;;;;;;;7.53;77.04;98365.59;7389325;19;19922;-74
2023/04/26 02:44:29;;;;;;;11.10;7.53;;;;;;;7.58;76.92;98368.66;7377381;19;19922;-74
2023/04/26 02:46:57;;;;;;;22.35;8.63;;;;;;;7.65;77.45;98368.91;7385161;19;19932;-75
2023/04/26 02:49:23;;;;;;;13.55;8.60;;;;;;;7.66;77.36;98365.28;7382268;19;19918;-75
2023/04/26 02:51:50;;;;;;;13.48;8.80;;;;;;;7.68;77.49;98366.00;7382870;19;21788;-75
2023/04/26 02:54:17;;;;;;;11.68;7.63;;;;;;;7.66;77.42;98365.28;7381850;19;19918;-74
2023/04/26 02:56:44;;;;;;;14.05;7.90;;;;;;;7.65;77.51;98367.09;7383166;19;19943;-74
2023/04/26 02:59:11;;;;;;;18.83;9.73;;;;;;;7.59;76.85;98372.94;7375757;19;19918;-75
2023/04/26 03:01:37;;;;;;;14.18;10.50;;;;;;;7.60;77.23;98366.69;7378732;19;20267;-74
2023/04/26 03:04:05;;;;;;;15.18;9.45;;;;;;;7.61;77.32;98367.50;7378648;19;19926;-75
2023/04/26 03:06:33;;;;;;;14.20;8.32;;;;;;;7.62;77.37;98374.47;7382664;19;19915;-75
2023/04/26 03:09:00;;;;;;;12.30;8.35;;;;;;;7.52;76.58;98378.88;7383883;19;19919;-75
2023/04/26 03:11:27;;;;;;;18.02;9.38;;;;;;;7.43;76.61;98376.09;7380763;19;20339;-75
2023/04/26 03:13:54;;;;;;;13.07;8.23;;;;;;;7.42;76.72;98374.41;7384027;19;19939;-74
2023/04/26 03:16:22;;;;;;;11.55;7.85;;;;;;;7.43;76.82;98373.47;7378728;19;19951;-75
2023/04/26 03:18:49;;;;;;;16.40;10.48;;;;;;;7.42;77.04;98374.41;7381559;19;20418;-74
2023/04/26 03:21:16;;;;;;;14.57;8.73;;;;;;;7.35;76.38;98375.13;7377892;19;19923;-75
2023/04/26 03:23:43;;;;;;;11.88;7.25;;;;;;;7.28;76.46;98366.91;7382877;19;19930;-75
2023/04/26 03:26:09;;;;;;;14.10;8.98;;;;;;;7.29;76.95;98373.81;7380364;19;19918;-75
2023/04/26 03:28:37;;;;;;;14.32;8.38;;;;;;;7.26;76.96;98368.84;7384342;19;20383;-75
2023/04/26 03:31:03;;;;;;;12.18;8.20;;;;;;;7.27;76.98;98378.41;7384980;19;20297;-74
2023/04/26 03:33:31;;;;;;;15.18;8.45;;;;;;;7.21;76.96;98373.66;7382552;19;19988;-75
2023/04/26 03:35:58;;;;;;;14.68;9.82;;;;;;;7.19;76.94;98375.63;7378861;19;19914;-75
2023/04/26 03:38:25;;;;;;;20.05;11.93;;;;;;;7.18;77.15;98379.22;7380830;19;20454;-75
2023/04/26 03:40:52;;;;;;;13.93;9.57;;;;;;;7.11;76.76;98375.44;7378165;19;19919;-75
2023/04/26 03:43:19;;;;;;;14.68;9.65;;;;;;;7.07;76.99;98376.69;7381063;19;20381;-74
2023/04/26 03:45:48;;;;;;;16.05;9.95;;;;;;;7.04;76.85;98370.72;7383140;19;19926;-74
2023/04/26 03:48:15;;;;;;;19.00;9.68;;;;;;;6.95;76.57;98370.69;7379456;19;19931;-75
2023/04/26 03:50:43;;;;;;;14.50;9.95;;;;;;;6.87;76.44;98368.72;7377453;19;19919;-75
2023/04/26 03:53:10;;;;;;;16.85;11.48;;;;;;;6.87;76.67;98371.34;7376352;19;19925;-75
2023/04/26 03:55:37;;;;;;;15.70;9.73;;;;;;;6.82;77.01;98376.19;7381385;19;19926;-75
2023/04/26 03:58:06;;;;;;;17.13;10.85;;;;;;;6.74;76.67;98371.59;7389381;19;19923;-75
2023/04/26 04:00:36;;;;;;;13.65;9.32;;;;;;;6.68;76.55;98374.72;7387159;19;19923;-75
2023/04/26 04:03:03;;;;;;;14.75;9.80;;;;;;;6.66;76.66;98374.03;7389561;19;19986;-75
2023/04/26 04:05:30;;;;;;;16.70;11.63;;;;;;;6.66;76.78;98375.81;7388706;19;20286;-75
2023/04/26 04:07:57;;;;;;;16.58;9.40;;;;;;;6.64;76.64;98380.41;7387303;19;20524;-75
2023/04/26 04:10:25;;;;;;;14.82;10.05;;;;;;;6.60;76.60;98383.25;7379218;19;19921;-75
2023/04/26 04:12:52;;;;;;;17.23;10.15;;;;;;;6.65;77.07;98376.78;7389722;19;19950;-75
2023/04/26 04:15:20;;;;;;;21.75;13.20;;;;;;;6.60;76.75;98380.63;7386237;19;20316;-75
2023/04/26 04:17:47;;;;;;;15.95;10.23;;;;;;;6.60;76.88;98380.63;7386983;19;19926;-75
2023/04/26 04:20:14;;;;;;;20.38;10.85;;;;;;;6.58;76.93;98374.69;7383060;19;19947;-75
2023/04/26 04:22:41;;;;;;;19.42;10.63;;;;;;;6.56;76.83;98379.25;7387424;19;19919;-75
2023/04/26 04:25:12;;;;;;;16.02;10.27;;;;;;;6.55;77.01;98374.09;7382808;19;20004;-74
2023/04/26 04:27:42;;;;;;;16.30;10.63;;;;;;;6.51;76.96;98370.91;7384655;19;19918;-75
2023/04/26 04:30:10;;;;;;;15.73;12.05;;;;;;;6.50;77.04;98369.25;7384089;19;19926;-75
2023/04/26 04:32:39;;;;;;;18.08;10.70;;;;;;;6.55;77.06;98374.94;7387187;19;19922;-74
2023/04/26 04:35:06;;;;;;;16.38;10.70;;;;;;;6.55;76.88;98377.56;7388197;19;19930;-75
2023/04/26 04:37:33;;;;;;;18.58;13.05;;;;;;;6.54;77.10;98378.53;7391181;19;20440;-75
2023/04/26 04:40:01;;;;;;;20.58;10.02;;;;;;;6.65;77.62;98384.69;7380360;19;19914;-74
2023/04/26 04:42:31;;;;;;;18.02;10.82;;;;;;;6.70;77.64;98387.75;7382802;19;19928;-75
2023/04/26 04:44:58;;;;;;;16.92;10.13;;;;;;;6.74;77.86;98381.25;7387378;19;19919;-74
2023/04/26 04:47:26;;;;;;;17.92;10.35;;;;;;;6.78;77.82;98385.28;7385014;19;19935;-74
2023/04/26 04:49:53;;;;;;;17.92;10.05;;;;;;;6.80;77.92;98386.81;7386376;19;19941;-75
2023/04/26 04:52:20;;;;;;;21.20;11.77;;;;;;;6.81;77.79;98385.84;7383198;19;20008;-74
2023/04/26 04:54:47;;;;;;;23.40;10.75;;;;;;;6.86;77.96;98389.91;7384991;19;20363;-74
2023/04/26 04:57:15;;;;;;;20.38;12.15;;;;;;;6.91;77.93;98392.97;7384347;19;20012;-75
2023/04/26 04:59:44;;;;;;;16.35;10.95;;;;;;;6.95;77.94;98396.97;7377968;19;19922;-75
2023/04/26 05:02:11;;;;;;;17.30;10.70;;;;;;;6.99;78.04;98396.59;7382476;19;19938;-74
2023/04/26 05:04:38;;;;;;;15.30;10.30;;;;;;;7.07;78.06;98401.19;7388049;19;19926;-75
2023/04/26 05:07:05;;;;;;;14.55;10.13;;;;;;;7.10;78.01;98410.63;7384350;19;19918;-75
2023/04/26 05:09:34;;;;;;;20.80;11.55;;;;;;;7.10;78.26;98415.88;7379766;19;20536;-75
2023/04/26 05:12:02;;;;;;;20.30;10.63;;;;;;;7.11;78.16;98407.88;7385266;19;19990;-75
2023/04/26 05:14:29;;;;;;;15.10;9.13;;;;;;;7.13;78.46;98420.88;7385072;19;21333;-75
2023/04/26 05:16:56;;;;;;;19.50;12.43;;;;;;;7.15;78.21;98421.56;7382738;19;19938;-75
2023/04/26 05:19:24;;;;;;;19.20;10.70;;;;;;;7.18;78.51;98419.50;7382829;19;19926;-75
2023/04/26 05:21:52;;;;;;;16.00;11.25;;;;;;;7.23;78.38;98424.38;7385652;19;19918;-75
2023/04/26 05:24:19;;;;;;;19.60;11.50;;;;;;;7.26;78.38;98427.56;7381845;19;19926;-74
2023/04/26 05:26:46;;;;;;;17.30;11.80;;;;;;;7.27;78.36;98425.78;7382894;19;19933;-74
2023/04/26 05:29:31;;;;;;;18.40;12.55;;;;;;;7.32;78.58;98425.34;7383793;19;20573;-74
2023/04/26 05:32:05;;;;;;;22.38;11.10;;;;;;;7.33;78.58;98432.31;7385968;19;19914;-75
2023/04/26 05:34:38;;;;;;;17.70;10.77;;;;;;;7.33;78.64;98435.75;7385373;19;19930;-74
2023/04/26 05:37:07;;;;;;;16.88;10.30;;;;;;;7.34;78.62;98432.16;7385831;19;20365;-74
2023/04/26 05:39:34;;;;;;;20.13;12.32;;;;;;;7.34;78.29;98440.06;7379742;19;19922;-74
2023/04/26 05:42:02;;;;;;;21.50;12.45;;;;;;;7.36;78.44;98435.50;7384012;19;19922;-74
2023/04/26 05:44:30;;;;;;;18.83;11.48;;;;;;;7.39;78.49;98439.66;7385648;19;19986;-74
2023/04/26 05:46:57;;;;;;;22.38;12.35;;;;;;;7.40;78.31;98441.34;7385599;19;19925;-75
2023/04/26 05:49:25;;;;;;;22.88;13.48;;;;;;;7.41;78.06;98443.00;7379037;19;20363;-75
2023/04/26 05:51:52;;;;;;;22.90;13.98;;;;;;;7.44;78.20;98443.53;7383138;19;19923;-74
2023/04/26 05:54:19;;;;;;;22.70;12.15;;;;;;;7.48;78.30;98446.75;7380656;19;19914;-75
2023/04/26 05:56:46;;;;;;;20.17;11.85;;;;;;;7.49;78.30;98453.69;7385268;19;20018;-74
2023/04/26 05:59:13;;;;;;;28.83;13.50;;;;;;;7.52;78.20;98447.31;7383160;19;19935;-75
2023/04/26 06:01:40;;;;;;;21.95;11.65;;;;;;;7.52;78.16;98448.16;7387480;19;19955;-74
2023/04/26 06:04:07;;;;;;;22.70;13.70;;;;;;;7.54;78.22;98446.22;7386648;19;19919;-75
2023/04/26 06:06:49;;;;;;;26.85;15.27;;;;;;;7.59;78.17;98449.28;7384578;19;19906;-75
2023/04/26 06:09:16;;;;;;;29.85;16.88;;;;;;;7.56;77.93;98457.44;7384529;19;19951;-75
2023/04/26 06:11:46;;;;;;;29.17;16.40;;;;;;;7.45;77.65;98455.75;7383631;19;19922;-75
2023/04/26 06:14:13;;;;;;;25.08;14.73;;;;;;;7.57;77.98;98455.66;7382801;19;19922;-75
2023/04/26 06:16:58;;;;;;;24.67;13.60;;;;;;;7.57;78.05;98451.22;7383999;19;19919;-74
2023/04/26 06:19:26;;;;;;;25.27;15.18;;;;;;;7.66;78.18;98446.91;7378878;19;19914;-76
2023/04/26 06:21:54;;;;;;;31.40;16.60;;;;;;;7.59;78.05;98453.72;7386247;19;19921;-74
2023/04/26 06:24:22;;;;;;;23.52;14.05;;;;;;;7.64;77.99;98457.59;7378474;19;19933;-75
2023/04/26 06:26:49;;;;;;;23.73;13.60;;;;;;;7.73;78.22;98457.75;7383287;19;19923;-74
2023/04/26 06:29:16;;;;;;;27.63;17.15;;;;;;;7.76;77.82;98458.31;7380930;19;20348;-75
2023/04/26 06:31:42;;;;;;;24.75;15.32;;;;;;;7.82;78.05;98459.56;7386056;19;19923;-74
2023/04/26 06:34:10;;;;;;;23.20;14.00;;;;;;;7.70;77.59;98467.59;7384843;19;19914;-75
2023/04/26 06:36:37;;;;;;;20.35;13.63;;;;;;;7.78;77.19;98464.28;7382435;19;19922;-74
2023/04/26 06:39:05;;;;;;;26.65;15.05;;;;;;;7.77;77.14;98470.53;7382160;19;19934;-74
2023/04/26 06:41:32;;;;;;;21.52;13.90;;;;;;;7.85;77.48;98467.22;7379861;19;19918;-74
2023/04/26 06:43:59;;;;;;;20.40;12.75;;;;;;;7.79;76.23;98476.47;7383300;19;19922;-74
2023/04/26 06:46:29;;;;;;;20.10;12.23;;;;;;;7.89;76.98;98474.69;7382145;19;19915;-74
2023/04/26 06:48:56;;;;;;;22.75;12.70;;;;;;;7.82;76.01;98470.09;7381391;19;19915;-75
2023/04/26 06:51:24;;;;;;;21.13;13.38;;;;;;;7.87;75.90;98468.75;7380348;19;19919;-74
2023/04/26 06:53:51;;;;;;;21.08;12.55;;;;;;;7.99;76.65;98474.72;7386107;19;19926;-74
2023/04/26 06:56:18;;;;;;;17.92;12.27;;;;;;;8.03;76.34;98473.50;7378978;19;19943;-74
2023/04/26 06:58:59;;;;;;;16.63;9.88;;;;;;;7.91;74.58;98462.22;7387095;19;19918;-74
2023/04/26 07:01:32;;;;;;;17.88;9.85;;;;;;;8.09;74.91;98466.84;7379603;19;19930;-74
2023/04/26 07:04:02;;;;;;;13.45;9.73;;;;;;;7.99;73.71;98466.81;7384491;19;19985;-75
2023/04/26 07:06:33;;;;;;;16.52;10.65;;;;;;;7.99;72.54;98461.53;7381596;19;20350;-74
2023/04/26 07:09:01;;;;;;;13.77;9.57;;;;;;;7.98;72.73;98459.03;7384881;19;19929;-74
2023/04/26 07:11:28;;;;;;;18.38;10.65;;;;;;;8.03;72.76;98457.69;7378136;19;19927;-74
2023/04/26 07:13:55;;;;;;;19.20;11.40;;;;;;;8.07;72.64;98459.06;7381492;19;19919;-73
2023/04/26 07:16:22;;;;;;;13.90;9.52;;;;;;;8.13;72.71;98455.03;7381897;19;19925;-74
2023/04/26 07:18:51;;;;;;;15.05;11.95;;;;;;;8.26;73.09;98447.69;7379535;19;20279;-74
2023/04/26 07:21:18;;;;;;;16.77;10.68;;;;;;;8.03;72.36;98447.13;7377638;19;19915;-74
2023/04/26 07:23:45;;;;;;;14.45;8.43;;;;;;;8.22;71.92;98442.84;7384228;19;19919;-75
2023/04/26 07:26:11;;;;;;;11.32;8.65;;;;;;;8.28;72.20;98445.75;7379275;19;19922;-75
2023/04/26 07:28:38;;;;;;;10.98;7.45;;;;;;;8.39;70.07;98446.56;7382164;19;19939;-74
2023/04/26 07:31:05;;;;;;;11.18;7.32;;;;;;;8.31;68.18;98440.19;7381011;19;19939;-74
2023/04/26 07:33:35;;;;;;;9.13;5.97;;;;;;;8.41;67.19;98434.13;7386775;19;19943;-74
2023/04/26 07:36:04;;;;;;;11.27;7.38;;;;;;;8.46;68.10;98445.06;7390509;19;19914;-74
2023/04/26 07:38:30;;;;;;;9.80;6.63;;;;;;;8.52;67.85;98436.59;7389659;19;19950;-74
2023/04/26 07:40:57;;;;;;;11.50;7.50;;;;;;;8.64;69.65;98439.91;7386069;19;19926;-74
2023/04/26 07:43:24;;;;;;;7.63;6.10;;;;;;;8.79;70.44;98436.69;7387195;19;19947;-74
2023/04/26 07:45:51;;;;;;;10.32;5.15;;;;;;;8.91;69.15;98439.16;7392456;19;19939;-75
2023/04/26 07:48:18;;;;;;;10.13;5.07;;;;;;;9.04;69.06;98437.03;7387349;19;19932;-74
2023/04/26 07:50:45;;;;;;;8.13;5.28;;;;;;;9.05;66.95;98435.22;7387193;19;19914;-74
2023/04/26 07:53:12;;;;;;;8.98;6.95;;;;;;;9.22;68.37;98426.53;7388940;19;20288;-74
2023/04/26 07:55:38;;;;;;;7.43;5.38;;;;;;;9.30;66.94;98431.91;7385224;19;19939;-75
2023/04/26 07:58:05;;;;;;;10.88;6.30;;;;;;;9.38;66.35;98434.66;7389359;19;19935;-74
2023/04/26 08:00:32;;;;;;;8.43;5.30;;;;;;;9.54;66.55;98430.56;7385813;19;19972;-74
2023/04/26 08:02:59;;;;;;;9.48;5.43;;;;;;;9.50;62.97;98437.09;7386219;19;19928;-74
2023/04/26 08:05:26;;;;;;;7.88;5.50;;;;;;;9.56;63.46;98431.25;7385423;19;19910;-75
2023/04/26 08:07:53;;;;;;;6.68;4.85;;;;;;;9.59;65.90;98441.50;7389361;19;20352;-74
2023/04/26 08:10:20;;;;;;;7.07;4.95;;;;;;;9.59;64.34;98438.88;7385482;19;20523;-74
2023/04/26 08:12:47;;;;;;;11.10;6.47;;;;;;;9.59;62.62;98439.69;7391090;19;20292;-74
2023/04/26 08:15:13;;;;;;;8.18;4.45;;;;;;;9.46;60.03;98436.56;7388227;19;19970;-74
2023/04/26 08:17:40;;;;;;;6.25;4.75;;;;;;;9.42;60.00;98443.09;7387356;19;20387;-75
2023/04/26 08:20:08;;;;;;;7.10;5.05;;;;;;;9.46;60.61;98436.56;7386026;19;20034;-74
2023/04/26 08:22:35;;;;;;;7.85;4.60;;;;;;;9.63;63.31;98448.13;7385193;19;19947;-74
2023/04/26 08:25:03;;;;;;;7.80;4.35;;;;;;;9.83;63.68;98448.88;7386670;19;19939;-74
2023/04/26 08:27:30;;;;;;;11.63;5.05;;;;;;;10.01;63.36;98451.53;7386030;19;19967;-74
2023/04/26 08:29:57;;;;;;;4.90;4.03;;;;;;;10.21;63.48;98449.56;7387965;19;19939;-74
2023/04/26 08:32:24;;;;;;;6.63;4.72;;;;;;;10.44;60.95;98452.59;7385632;19;20568;-74
2023/04/26 08:34:51;;;;;;;10.32;4.82;;;;;;;10.39;59.98;98445.13;7390796;19;20393;-75
2023/04/26 08:37:18;;;;;;;4.78;3.97;;;;;;;10.43;59.13;98441.19;7387556;19;19922;-75
2023/04/26 08:39:45;;;;;;;6.97;4.57;;;;;;;10.60;58.73;98446.59;7386460;19;20408;-74
2023/04/26 08:42:13;;;;;;;5.55;4.05;;;;;;;10.73;57.32;98444.38;7383462;19;19921;-74
2023/04/26 08:44:41;;;;;;;6.60;5.25;;;;;;;10.91;56.48;98447.00;7387694;19;19910;-74
2023/04/26 08:47:18;;;;;;;5.63;4.50;;;;;;;11.04;55.30;98443.91;7388906;19;19953;-74
2023/04/26 08:49:47;;;;;;;5.78;3.83;;;;;;;11.51;59.27;98451.44;7385904;19;19918;-75
2023/04/26 08:52:15;;;;;;;5.97;4.93;;;;;;;11.79;55.51;98452.81;7384821;19;20564;-74
2023/04/26 08:54:45;;;;;;;6.03;4.30;;;;;;;11.48;53.34;98454.38;7383544;19;19926;-75
2023/04/26 08:57:12;;;;;;;5.50;4.13;;;;;;;11.71;54.20;98455.47;7386806;19;19919;-75
2023/04/26 08:59:38;;;;;;;6.63;5.75;;;;;;;11.89;54.57;98457.22;7381022;19;20297;-75
2023/04/26 09:02:06;;;;;;;9.40;4.43;;;;;;;11.69;53.31;98441.56;7389369;19;20450;-74
2023/04/26 09:04:33;;;;;;;8.18;4.53;;;;;;;11.42;55.60;98450.56;7386089;19;19939;-75
2023/04/26 09:07:01;;;;;;;5.45;4.07;;;;;;;11.38;53.38;98450.06;7388705;19;19934;-74
2023/04/26 09:09:37;;;;;;;5.60;4.40;;;;;;;11.21;53.25;98451.78;7383197;19;19915;-74
2023/04/26 09:12:04;;;;;;;5.90;4.28;;;;;;;11.13;56.02;98448.25;7385669;19;19914;-74
2023/04/26 09:14:31;;;;;;;8.43;4.38;;;;;;;11.20;54.45;98444.84;7385098;19;19915;-75
2023/04/26 09:16:58;;;;;;;5.95;4.50;;;;;;;11.38;54.03;98449.22;7389573;19;20016;-75
2023/04/26 09:19:35;;;;;;;9.02;4.65;;;;;;;11.56;55.15;98443.84;7382228;19;19918;-74
2023/04/26 09:22:03;;;;;;;6.85;4.35;;;;;;;11.76;53.82;98444.38;7384904;19;20246;-74
2023/04/26 09:24:56;;;;;;;6.38;4.15;;;;;;;11.78;52.01;98435.28;7382658;19;19960;-75
2023/04/26 09:27:31;;;;;;;7.60;4.75;;;;;;;11.69;53.27;98438.06;7381319;19;20344;-74
2023/04/26 09:30:02;;;;;;;7.00;4.20;;;;;;;11.89;54.73;98438.66;7384542;19;19915;-74
2023/04/26 09:32:49;;;;;;;10.75;4.72;;;;;;;11.84;51.76;98431.16;7384880;19;19915;-74
2023/04/26 09:35:26;;;;;;;9.02;4.57;;;;;;;11.99;54.95;98437.50;7388943;19;19918;-75
2023/04/26 09:37:57;;;;;;;6.32;4.70;;;;;;;11.94;52.38;98429.22;7390099;19;19921;-75
2023/04/26 09:40:36;;;;;;;9.30;4.70;;;;;;;11.90;53.28;98424.41;7382860;19;20013;-75
2023/04/26 09:43:05;;;;;;;5.97;3.97;;;;;;;11.89;51.91;98425.41;7384764;19;19914;-74
2023/04/26 09:45:42;;;;;;;6.63;4.10;;;;;;;11.89;53.67;98425.41;7383045;19;19943;-74
2023/04/26 09:48:27;;;;;;;8.23;3.92;;;;;;;11.74;52.01;98420.72;7387183;19;20271;-75
2023/04/26 09:50:58;;;;;;;6.03;4.63;;;;;;;11.80;50.79;98419.22;7386650;19;19947;-74
2023/04/26 09:53:26;;;;;;;6.43;4.07;;;;;;;12.08;51.93;98415.34;7384188;19;19974;-75
2023/04/26 09:56:06;;;;;;;5.25;3.75;;;;;;;12.20;48.09;98425.59;7388450;19;19935;-74
2023/04/26 09:58:35;;;;;;;7.13;5.70;;;;;;;12.18;47.91;98417.81;7383887;19;20253;-75
2023/04/26 10:01:03;;;;;;;8.85;4.40;;;;;;;12.54;51.86;98414.00;7384937;19;20022;-74
2023/04/26 10:03:33;;;;;;;5.32;3.97;;;;;;;12.35;48.82;98418.66;7382172;19;19926;-76
2023/04/26 10:06:00;;;;;;;8.05;5.75;;;;;;;12.31;47.78;98422.63;7387033;19;20277;-75
2023/04/26 10:08:26;;;;;;;4.40;3.55;;;;;;;12.49;49.56;98411.84;7383984;19;19955;-74
2023/04/26 10:10:54;;;;;;;5.15;3.45;;;;;;;12.82;52.77;98414.44;7385930;19;19958;-76
2023/04/26 10:13:21;;;;;;;7.80;4.00;;;;;;;12.94;51.40;98410.44;7388981;19;19939;-77
2023/04/26 10:15:47;;;;;;;7.07;4.35;;;;;;;13.11;52.02;98412.06;7384650;19;19922;-75
2023/04/26 10:18:14;;;;;;;6.82;4.38;;;;;;;13.25;50.38;98405.22;7382239;19;20331;-75
2023/04/26 10:20:44;;;;;;;6.15;4.00;;;;;;;13.46;51.80;98404.66;7379995;19;19911;-75
2023/04/26 10:23:24;;;;;;;7.25;3.83;;;;;;;13.50;50.41;98405.13;7385839;19;19918;-76
2023/04/26 10:25:51;;;;;;;5.22;3.47;;;;;;;13.14;46.02;98397.63;7387941;19;19982;-75
2023/04/26 10:28:44;;;;;;;4.13;3.53;;;;;;;13.51;48.46;98402.31;7384432;19;20016;-74
2023/04/26 10:31:11;;;;;;;4.60;3.53;;;;;;;13.30;47.34;98399.41;7382511;19;19918;-75
2023/04/26 10:33:37;;;;;;;7.25;3.38;;;;;;;13.25;50.18;98394.59;7383657;19;20336;-75
2023/04/26 10:36:07;;;;;;;4.57;3.20;;;;;;;13.25;45.91;98404.38;7384700;19;19953;-75
2023/04/26 10:38:35;;;;;;;4.57;4.10;;;;;;;13.34;47.62;98392.75;7378516;19;20260;-75
2023/04/26 10:41:31;;;;;;;6.82;4.03;;;;;;;13.72;47.40;98395.56;7378138;19;19919;-75
2023/04/26 10:44:00;;;;;;;5.50;3.22;;;;;;;13.84;45.71;98400.28;7386264;19;19926;-76
2023/04/26 10:46:34;;;;;;;7.95;3.17;;;;;;;13.82;44.67;98396.13;7383867;19;19919;-75
2023/04/26 10:49:12;;;;;;;5.13;3.17;;;;;;;13.88;46.53;98391.97;7385456;19;19922;-76
2023/04/26 10:51:39;;;;;;;6.32;3.13;;;;;;;13.82;44.74;98396.13;7373353;19;19967;-74
2023/04/26 10:54:06;;;;;;;5.43;3.13;;;;;;;14.03;45.57;98387.50;7384720;19;19982;-75
2023/04/26 10:56:38;;;;;;;5.13;3.08;;;;;;;14.36;48.34;98381.94;7382616;19;19914;-75
2023/04/26 10:59:10;;;;;;;5.25;3.83;;;;;;;14.35;46.02;98386.47;7387314;19;19914;-74
2023/04/26 11:01:40;;;;;;;5.60;2.85;;;;;;;14.38;45.37;98372.78;7383821;19;19954;-75
2023/04/26 11:04:08;;;;;;;6.05;2.97;;;;;;;14.41;44.51;98375.06;7378892;19;19929;-75
2023/04/26 11:06:49;;;;;;;5.18;3.22;;;;;;;14.50;46.52;98368.66;7388401;19;19918;-75
2023/04/26 11:09:36;;;;;;;4.00;3.28;;;;;;;14.69;44.30;98379.81;7388978;19;20797;-75
2023/04/26 11:12:03;;;;;;;5.53;3.88;;;;;;;14.49;45.09;98372.34;7397300;19;19951;-76
2023/04/26 11:14:32;;;;;;;5.57;3.08;;;;;;;14.00;40.67;98370.06;7398820;19;19955;-76
2023/04/26 11:17:03;;;;;;;4.07;2.80;;;;;;;14.10;44.36;98369.84;7400198;19;19930;-75
2023/04/26 11:19:31;;;;;;;4.03;2.75;;;;;;;14.35;44.42;98365.16;7395026;19;19926;-75
2023/04/26 11:21:59;;;;;;;4.35;2.88;;;;;;;14.56;44.18;98363.66;7397444;19;19943;-76
2023/04/26 11:24:30;;;;;;;5.22;3.13;;;;;;;15.11;43.72;98362.38;7391375;19;19914;-75
2023/04/26 11:26:58;;;;;;;5.22;2.78;;;;;;;15.20;43.63;98363.13;7397892;19;19918;-77
2023/04/26 11:29:25;;;;;;;5.00;2.95;;;;;;;15.63;40.81;98352.56;7398084;19;19927;-76
2023/04/26 11:31:57;;;;;;;4.70;2.45;;;;;;;16.58;41.48;98344.19;7395509;19;19926;-79
2023/04/26 11:34:34;;;;;;;3.53;2.38;;;;;;;17.22;39.64;98334.31;7407680;19;19926;-77
2023/04/26 11:37:02;;;;;;;3.85;2.75;;;;;;;17.54;39.31;98335.47;7399395;19;19919;-76
2023/04/26 11:39:33;;;;;;;7.45;4.07;;;;;;;18.27;39.32;98340.94;7391068;19;20190;-75
2023/04/26 11:42:06;;;;;;;8.30;3.33;;;;;;;17.72;36.39;98329.53;7399476;19;19923;-76
2023/04/26 11:44:34;;;;;;;4.40;3.17;;;;;;;17.34;36.77;98314.81;7393285;19;19926;-76